Time;durP1;ratioP1;P1;durP2;ratioP2;P2;SDS_P1;SDS_P2;PMS_P1;PMS_P2;Temp;Humidity;BMP_temperature;BMP_pressure;BME280_temperature;BME280_humidity;BME280_pressure;Samples;Min_cycle;Max_cycle;Signal;HPM_P1;HPM_P2
2022/06/29 00:00:23;;;;;;;9.70;1.80;;;;;;;21.42;44.04;100953.56;5068670;28;20048;-62
2022/06/29 00:02:51;;;;;;;9.00;2.03;;;;;;;21.27;44.28;100951.72;5069268;28;20041;-62
2022/06/29 00:05:23;;;;;;;7.93;1.80;;;;;;;21.19;44.86;100952.84;5075851;28;20048;-62
2022/06/29 00:07:52;;;;;;;7.40;2.08;;;;;;;21.16;45.07;100954.41;5065640;28;20068;-62
2022/06/29 00:10:20;;;;;;;7.60;2.05;;;;;;;20.81;45.07;100947.44;5072418;28;20063;-62
2022/06/29 00:12:48;;;;;;;8.30;1.90;;;;;;;20.80;46.00;100943.81;5065474;28;20052;-62
2022/06/29 00:15:16;;;;;;;8.45;2.03;;;;;;;20.72;45.98;100947.72;5086737;28;20048;-63
2022/06/29 00:17:43;;;;;;;8.05;1.95;;;;;;;20.13;48.54;100945.47;5074131;28;20044;-62
2022/06/29 00:20:12;;;;;;;5.43;1.52;;;;;;;20.13;48.77;100950.25;5050384;28;20052;-63
2022/06/29 00:22:41;;;;;;;10.85;2.03;;;;;;;20.34;48.43;100949.84;5058264;28;20048;-63
2022/06/29 00:25:09;;;;;;;8.57;1.77;;;;;;;20.47;48.11;100954.09;5071425;28;20051;-64
2022/06/29 00:27:37;;;;;;;11.70;2.08;;;;;;;20.42;48.59;100954.38;5058194;28;20059;-64
2022/06/29 00:30:05;;;;;;;6.28;1.80;;;;;;;20.45;48.84;100946.03;5079038;28;20044;-64
2022/06/29 00:32:33;;;;;;;12.85;2.42;;;;;;;20.54;48.27;100948.63;5076878;28;20420;-63
2022/06/29 00:35:01;;;;;;;13.25;2.10;;;;;;;20.11;49.84;100947.03;5060804;28;20049;-62
2022/06/29 00:37:28;;;;;;;7.97;1.85;;;;;;;19.89;50.80;100947.81;5069528;28;20080;-63
2022/06/29 00:39:56;;;;;;;6.88;1.85;;;;;;;20.12;50.38;100941.06;5078858;28;20049;-62
2022/06/29 00:42:23;;;;;;;10.82;1.80;;;;;;;20.04;50.28;100944.91;5084261;28;20055;-64
2022/06/29 00:44:50;;;;;;;8.85;1.80;;;;;;;20.15;50.34;100937.50;5080354;28;20055;-63
2022/06/29 00:47:18;;;;;;;8.73;2.00;;;;;;;20.18;50.26;100933.19;5076651;28;20428;-62
2022/06/29 00:49:45;;;;;;;8.43;1.90;;;;;;;20.35;50.32;100931.88;5083251;28;20048;-63
2022/06/29 00:52:15;;;;;;;8.30;1.83;;;;;;;20.42;50.24;100932.00;5081008;28;20052;-63
2022/06/29 00:54:51;;;;;;;6.22;1.70;;;;;;;20.57;50.20;100929.06;5075740;28;20155;-63
2022/06/29 00:57:24;;;;;;;9.45;1.85;;;;;;;20.49;50.00;100923.72;5081590;28;20048;-63
2022/06/29 00:59:54;;;;;;;9.05;1.85;;;;;;;20.50;50.17;100920.56;5071393;28;20064;-63
2022/06/29 01:02:23;;;;;;;7.25;1.80;;;;;;;20.30;51.07;100924.63;5042913;28;20059;-63
2022/06/29 01:04:52;;;;;;;8.02;1.65;;;;;;;20.24;51.27;100928.09;5051861;28;20459;-63
2022/06/29 01:07:23;;;;;;;7.50;1.95;;;;;;;20.15;51.74;100931.13;5059601;28;20045;-62
2022/06/29 01:09:51;;;;;;;12.15;1.83;;;;;;;20.06;52.48;100931.38;5075215;28;20051;-61
2022/06/29 01:12:18;;;;;;;6.78;1.92;;;;;;;20.19;52.30;100928.41;5069137;28;20060;-63
2022/06/29 01:14:47;;;;;;;7.82;1.88;;;;;;;20.23;52.43;100930.09;5051647;28;20040;-64
2022/06/29 01:17:16;;;;;;;8.98;2.20;;;;;;;20.28;51.66;100924.16;5077315;28;20427;-62
2022/06/29 01:19:43;;;;;;;6.90;1.88;;;;;;;20.31;51.58;100931.03;5059443;28;20044;-60
2022/06/29 01:22:14;;;;;;;7.22;1.90;;;;;;;20.31;51.63;100933.81;5083867;28;20052;-62
2022/06/29 01:24:44;;;;;;;6.80;1.90;;;;;;;20.24;51.24;100925.31;5072579;28;20652;-62
2022/06/29 01:27:12;;;;;;;;;;;;;;;20.19;51.13;100920.81;5064290;28;20522;-63
2022/06/29 01:29:40;;;;;;;8.00;1.95;;;;;;;20.19;51.47;100914.44;5053949;28;19924;-63
2022/06/29 01:32:08;;;;;;;8.15;1.90;;;;;;;20.07;52.05;100921.78;5071738;28;20049;-63
2022/06/29 01:34:36;;;;;;;6.82;1.70;;;;;;;20.22;51.39;100916.47;5072332;28;20411;-62
2022/06/29 01:37:04;;;;;;;11.57;2.00;;;;;;;20.18;51.72;100916.41;5062717;28;20052;-62
2022/06/29 01:39:33;;;;;;;6.32;2.05;;;;;;;20.25;51.85;100921.31;5076406;28;20091;-62
2022/06/29 01:42:00;;;;;;;6.70;2.10;;;;;;;20.11;51.88;100917.06;5037163;28;20048;-63
2022/06/29 01:44:28;;;;;;;14.10;2.45;;;;;;;20.13;51.51;100914.72;5058388;28;20071;-62
2022/06/29 01:46:55;;;;;;;10.90;2.08;;;;;;;20.29;51.75;100916.59;5076452;28;20380;-62
2022/06/29 01:49:23;;;;;;;6.20;1.88;;;;;;;20.34;51.88;100916.28;5064885;28;20069;-63
2022/06/29 01:51:51;;;;;;;8.15;2.40;;;;;;;20.27;51.71;100916.16;5067581;28;20045;-63
2022/06/29 01:54:18;;;;;;;10.15;2.08;;;;;;;20.36;51.57;100920.34;5064242;28;20550;-63
2022/06/29 01:56:45;;;;;;;7.47;2.00;;;;;;;20.16;51.77;100913.19;5065728;28;20052;-63
2022/06/29 01:59:13;;;;;;;10.70;1.98;;;;;;;20.03;53.17;100922.91;5071930;28;20041;-63
2022/06/29 02:01:41;;;;;;;10.15;2.05;;;;;;;20.08;52.63;100915.00;5069948;28;20112;-63
2022/06/29 02:04:08;;;;;;;12.00;1.92;;;;;;;20.08;52.62;100928.97;5059114;28;20048;-63
2022/06/29 02:06:36;;;;;;;7.18;1.70;;;;;;;19.96;53.00;100919.97;5061928;28;20052;-63
2022/06/29 02:09:03;;;;;;;6.10;1.70;;;;;;;19.84;53.76;100923.75;5073058;28;20059;-61
2022/06/29 02:11:30;;;;;;;9.88;1.80;;;;;;;19.84;54.00;100918.16;5066983;28;20041;-63
2022/06/29 02:13:57;;;;;;;10.80;2.20;;;;;;;19.84;54.06;100906.19;5062441;28;20044;-63
2022/06/29 02:16:25;;;;;;;9.63;2.00;;;;;;;19.81;54.03;100913.31;5080397;28;20056;-62
2022/06/29 02:18:52;;;;;;;6.95;1.92;;;;;;;19.71;54.81;100918.69;5059324;28;20435;-62
2022/06/29 02:21:19;;;;;;;8.88;1.92;;;;;;;19.66;54.92;100916.19;5061663;28;20051;-62
2022/06/29 02:23:48;;;;;;;8.40;1.92;;;;;;;19.74;54.98;100913.19;5075849;28;20040;-62
2022/06/29 02:26:15;;;;;;;9.32;1.73;;;;;;;19.68;55.24;100917.44;5069318;28;20056;-62
2022/06/29 02:28:43;;;;;;;11.57;2.00;;;;;;;19.81;54.89;100918.91;5075435;28;20522;-62
2022/06/29 02:36:42;;;;;;;12.10;2.28;;;;;;;19.76;55.06;100916.41;5081727;28;20072;-62
2022/06/29 02:39:10;;;;;;;12.02;1.73;;;;;;;19.75;55.04;100914.78;5056361;28;20052;-62
2022/06/29 02:41:37;;;;;;;5.63;1.60;;;;;;;19.71;55.34;100924.28;5078709;28;20411;-63
2022/06/29 02:44:04;;;;;;;6.65;1.83;;;;;;;19.65;55.80;100911.81;5074380;28;20052;-62
2022/06/29 02:46:32;;;;;;;7.88;1.80;;;;;;;19.65;55.49;100909.78;5071914;28;20048;-62
2022/06/29 02:48:59;;;;;;;9.30;2.45;;;;;;;19.72;55.45;100906.31;5079610;28;20041;-62
2022/06/29 02:51:26;;;;;;;11.23;2.08;;;;;;;19.65;55.45;100906.22;5075744;28;20060;-62
2022/06/29 02:53:54;;;;;;;6.28;1.90;;;;;;;19.65;55.66;100906.22;5075827;28;20060;-62
2022/06/29 02:56:21;;;;;;;8.85;1.83;;;;;;;19.57;56.23;100907.25;5066431;28;20048;-62
2022/06/29 02:58:48;;;;;;;6.40;2.25;;;;;;;19.60;56.23;100898.91;5070576;28;20052;-62
2022/06/29 03:01:16;;;;;;;7.53;2.00;;;;;;;19.68;55.91;100902.66;5080368;28;20067;-62
2022/06/29 03:03:43;;;;;;;8.07;2.20;;;;;;;19.53;56.37;100896.00;5073319;28;20052;-62
2022/06/29 03:06:10;;;;;;;8.68;1.80;;;;;;;19.56;56.47;100895.25;5074659;28;20063;-62
2022/06/29 03:08:38;;;;;;;7.97;1.92;;;;;;;19.40;57.11;100902.09;5069921;28;20052;-62
2022/06/29 03:11:05;;;;;;;8.10;2.40;;;;;;;19.31;57.21;100898.72;5062695;28;20051;-61
2022/06/29 03:13:33;;;;;;;9.85;2.38;;;;;;;19.33;57.28;100899.16;5078833;28;20070;-62
2022/06/29 03:16:00;;;;;;;7.88;1.95;;;;;;;19.31;57.50;100898.72;5075215;28;20044;-63
2022/06/29 03:18:27;;;;;;;9.15;1.88;;;;;;;19.20;57.89;100895.66;5074851;28;20048;-61
2022/06/29 03:20:55;;;;;;;7.85;1.88;;;;;;;19.26;57.98;100896.19;5076064;28;20044;-62
2022/06/29 03:23:22;;;;;;;9.57;2.03;;;;;;;19.25;57.74;100895.38;5074146;28;20063;-61
2022/06/29 03:25:50;;;;;;;5.85;1.70;;;;;;;19.31;57.46;100909.91;5058796;28;20040;-62
2022/06/29 03:28:17;;;;;;;9.57;1.80;;;;;;;19.45;56.96;100907.41;5072245;28;20056;-62
2022/06/29 03:30:45;;;;;;;6.57;1.80;;;;;;;19.50;57.25;100901.50;5072370;28;20059;-62
2022/06/29 03:33:13;;;;;;;11.27;2.20;;;;;;;19.45;57.04;100908.22;5089507;28;20059;-62
2022/06/29 03:35:40;;;;;;;13.68;2.00;;;;;;;19.29;57.92;100903.84;5067263;28;20051;-62
2022/06/29 03:38:07;;;;;;;7.10;1.90;;;;;;;19.36;57.65;100901.22;5062621;28;20052;-62
2022/06/29 03:40:35;;;;;;;14.75;2.03;;;;;;;19.28;58.05;100900.25;5085260;28;20040;-62
2022/06/29 03:43:02;;;;;;;11.88;2.00;;;;;;;19.29;57.92;100901.03;5071801;28;20048;-62
2022/06/29 03:45:29;;;;;;;8.05;2.17;;;;;;;19.29;57.59;100901.84;5072075;28;20044;-61
2022/06/29 03:47:57;;;;;;;7.55;1.75;;;;;;;19.24;58.27;100904.13;5082846;28;20062;-62
2022/06/29 03:50:24;;;;;;;7.28;2.17;;;;;;;19.18;58.55;100900.03;5070004;28;20101;-61
2022/06/29 03:52:52;;;;;;;7.15;2.13;;;;;;;19.14;58.58;100893.53;5071521;28;20448;-62
2022/06/29 03:55:19;;;;;;;10.57;2.42;;;;;;;19.05;58.98;100896.56;5067048;28;20068;-62
2022/06/29 03:57:46;;;;;;;9.23;1.77;;;;;;;18.84;60.20;100898.88;5064754;28;20053;-61
2022/06/29 04:00:14;;;;;;;7.32;1.85;;;;;;;18.72;60.68;100907.38;5072331;28;20862;-63
2022/06/29 04:02:42;;;;;;;8.02;2.00;;;;;;;18.76;60.61;100899.88;5038486;28;20075;-62
2022/06/29 04:05:09;;;;;;;8.93;1.83;;;;;;;18.83;60.38;100902.81;5081778;28;20397;-61
2022/06/29 04:07:36;;;;;;;6.88;1.88;;;;;;;18.82;60.57;100904.00;5057344;28;20048;-62
2022/06/29 04:10:04;;;;;;;6.03;1.58;;;;;;;18.88;60.30;100902.56;5076029;28;20052;-62
2022/06/29 04:12:34;;;;;;;6.13;1.90;;;;;;;19.01;59.51;100892.88;5072210;28;20048;-62
2022/06/29 04:15:02;;;;;;;16.37;2.53;;;;;;;18.96;60.04;100902.34;5078647;28;20507;-62
2022/06/29 04:17:30;;;;;;;10.23;1.92;;;;;;;19.05;59.68;100902.13;5057102;28;20608;-62
2022/06/29 04:19:58;;;;;;;6.22;1.95;;;;;;;19.05;59.40;100902.13;5084027;28;20049;-61
2022/06/29 04:22:25;;;;;;;7.93;1.98;;;;;;;19.09;59.47;100897.41;5074887;28;20045;-62
2022/06/29 04:24:53;;;;;;;9.98;2.00;;;;;;;19.12;59.79;100899.50;5081391;28;20049;-62
2022/06/29 04:27:20;;;;;;;12.25;2.10;;;;;;;19.08;59.69;100901.41;5053907;28;20052;-61
2022/06/29 04:29:47;;;;;;;10.35;2.28;;;;;;;19.29;58.80;100904.66;5074787;28;20048;-62
2022/06/29 04:32:15;;;;;;;9.45;1.92;;;;;;;19.32;58.75;100901.13;5080693;28;20059;-62
2022/06/29 04:34:42;;;;;;;10.45;2.05;;;;;;;19.29;58.88;100896.25;5072569;28;20114;-63
2022/06/29 04:37:09;;;;;;;6.05;2.20;;;;;;;19.03;59.45;100902.50;5078376;28;20080;-63
2022/06/29 04:39:37;;;;;;;9.23;2.35;;;;;;;19.11;59.55;100899.88;5074700;28;20487;-62
2022/06/29 04:42:04;;;;;;;6.65;2.30;;;;;;;19.29;59.16;100895.44;5036376;28;20072;-61
2022/06/29 04:44:32;;;;;;;11.50;2.67;;;;;;;19.38;59.01;100891.31;5037673;28;20056;-64
2022/06/29 04:46:59;;;;;;;6.88;1.90;;;;;;;19.09;59.14;100897.41;5038475;28;20048;-62
2022/06/29 04:49:27;;;;;;;8.63;2.13;;;;;;;19.09;59.51;100894.63;5085673;28;20526;-62
2022/06/29 04:51:55;;;;;;;16.60;2.10;;;;;;;19.11;59.93;100897.88;5074428;28;20052;-61
2022/06/29 04:54:23;;;;;;;14.30;2.30;;;;;;;19.09;59.89;100897.41;5074996;28;20126;-62
2022/06/29 04:56:50;;;;;;;8.23;2.13;;;;;;;19.21;59.51;100897.31;5044638;28;20391;-62
2022/06/29 04:59:19;;;;;;;9.02;2.13;;;;;;;19.24;59.07;100899.34;5060806;28;20396;-62
2022/06/29 05:01:49;;;;;;;5.95;2.13;;;;;;;19.17;59.33;100892.81;5075554;28;20044;-62
2022/06/29 05:04:20;;;;;;;7.78;2.30;;;;;;;19.31;58.76;100893.13;5059309;28;20044;-62
2022/06/29 05:06:50;;;;;;;8.52;2.15;;;;;;;19.19;58.60;100891.28;5051578;28;20057;-63
2022/06/29 05:09:18;;;;;;;10.88;1.90;;;;;;;19.32;57.38;100900.34;5074451;28;20045;-61
2022/06/29 05:11:51;;;;;;;7.35;2.13;;;;;;;19.34;56.91;100892.38;5043625;28;20048;-62
2022/06/29 05:14:19;;;;;;;11.70;2.13;;;;;;;19.03;57.35;100890.53;5066145;28;20056;-62
2022/06/29 05:16:46;;;;;;;7.13;1.90;;;;;;;19.17;57.50;100890.81;5073099;28;20064;-63
2022/06/29 05:19:14;;;;;;;10.27;2.17;;;;;;;19.24;56.49;100888.19;5065224;28;20099;-62
2022/06/29 05:21:41;;;;;;;7.70;1.95;;;;;;;19.13;56.55;100892.72;5044324;28;20061;-63
2022/06/29 05:24:09;;;;;;;10.60;2.30;;;;;;;18.99;56.24;100892.41;5050030;28;20450;-62
2022/06/29 05:26:37;;;;;;;12.65;2.30;;;;;;;19.01;56.93;100887.28;5072827;28;20060;-62
2022/06/29 05:29:05;;;;;;;11.63;1.95;;;;;;;19.04;55.00;100898.53;5087442;28;20048;-62
2022/06/29 05:31:32;;;;;;;5.80;1.92;;;;;;;18.92;55.43;100900.63;5076448;28;20055;-62
2022/06/29 05:34:00;;;;;;;8.00;1.92;;;;;;;19.03;55.96;100899.72;5069335;28;20068;-63
2022/06/29 05:36:27;;;;;;;7.72;2.00;;;;;;;18.88;55.60;100911.72;5037878;28;20063;-63
2022/06/29 05:38:55;;;;;;;7.55;2.13;;;;;;;18.97;55.68;100911.50;5068679;28;20049;-62
2022/06/29 05:41:22;;;;;;;8.68;1.98;;;;;;;19.03;55.36;100905.31;5070224;28;20646;-62
2022/06/29 05:43:51;;;;;;;5.65;1.80;;;;;;;19.02;55.84;100898.09;5074065;28;20977;-62
2022/06/29 05:46:21;;;;;;;10.32;1.80;;;;;;;18.89;55.11;100901.38;5073237;28;20522;-62
2022/06/29 05:48:49;;;;;;;6.13;1.85;;;;;;;19.11;55.27;100905.44;5074245;28;20130;-62
2022/06/29 05:51:16;;;;;;;8.90;1.90;;;;;;;19.30;55.38;100905.47;5058096;28;20135;-62
2022/06/29 05:53:44;;;;;;;9.93;2.10;;;;;;;19.26;55.07;100907.38;5082383;28;20056;-62
2022/06/29 05:56:12;;;;;;;8.52;2.25;;;;;;;19.36;54.76;100902.03;5076275;28;20055;-63
2022/06/29 05:58:39;;;;;;;11.15;2.25;;;;;;;19.25;54.05;100895.38;5074307;28;20052;-65
2022/06/29 06:01:09;;;;;;;7.70;2.20;;;;;;;19.41;54.07;100887.75;5077152;28;20064;-65
2022/06/29 06:03:36;;;;;;;10.23;2.47;;;;;;;19.43;54.29;100893.78;5080740;28;20492;-63
2022/06/29 06:06:04;;;;;;;11.10;2.40;;;;;;;19.55;54.56;100892.81;5067813;28;20048;-63
2022/06/29 06:08:31;;;;;;;9.20;2.00;;;;;;;19.78;52.77;100891.69;5076119;28;20052;-63
2022/06/29 06:10:59;;;;;;;11.02;2.42;;;;;;;19.58;53.98;100898.47;5076170;28;20044;-63
2022/06/29 06:13:26;;;;;;;8.13;2.25;;;;;;;19.67;54.33;100896.25;5074553;28;20533;-63
2022/06/29 06:15:53;;;;;;;11.43;1.92;;;;;;;19.64;53.42;100897.00;5077347;28;20063;-63
2022/06/29 06:18:21;;;;;;;15.35;3.00;;;;;;;19.53;53.59;100900.75;5081224;28;20052;-63
2022/06/29 06:20:48;;;;;;;8.77;2.30;;;;;;;19.62;56.13;100909.72;5073532;28;20421;-64
2022/06/29 06:23:16;;;;;;;16.20;3.17;;;;;;;20.09;60.68;100901.84;5069355;28;20059;-64
2022/06/29 06:25:43;;;;;;;17.98;2.38;;;;;;;20.43;57.44;100903.66;5075799;28;20048;-64
2022/06/29 06:28:11;;;;;;;7.30;1.98;;;;;;;20.45;54.92;100906.09;5075689;28;20046;-63
2022/06/29 06:30:38;;;;;;;10.45;2.22;;;;;;;20.70;54.64;100904.47;5076821;28;20055;-63
2022/06/29 06:33:05;;;;;;;15.32;2.50;;;;;;;20.39;52.05;100904.78;5049910;28;20490;-63
2022/06/29 06:35:33;;;;;;;9.75;2.45;;;;;;;20.43;54.61;100916.84;5075254;28;20056;-64
2022/06/29 06:38:01;;;;;;;10.98;2.55;;;;;;;20.61;56.24;100910.31;5071220;28;20080;-64
2022/06/29 06:43:15;;;;;;;10.05;2.17;;;;;;;20.83;55.82;100911.47;5057060;28;20049;-63
2022/06/29 06:45:42;;;;;;;8.95;2.03;;;;;;;20.60;51.89;100900.34;5051871;28;20056;-63
2022/06/29 06:48:09;;;;;;;8.82;2.10;;;;;;;20.64;51.26;100906.78;5079461;28;20048;-63
2022/06/29 06:50:37;;;;;;;10.18;2.20;;;;;;;21.00;51.65;100896.94;5084273;28;20399;-63
2022/06/29 06:53:04;;;;;;;8.25;1.80;;;;;;;20.84;50.35;100899.06;5066749;28;20491;-63
2022/06/29 06:55:32;;;;;;;6.35;2.20;;;;;;;21.04;49.39;100895.00;5086948;28;20685;-63
2022/06/29 06:58:01;;;;;;;10.07;2.13;;;;;;;21.11;51.10;100897.91;5070071;28;20052;-64
2022/06/29 07:00:29;;;;;;;7.85;2.30;;;;;;;21.23;49.55;100892.84;5070863;28;20056;-63
2022/06/29 07:02:56;;;;;;;6.60;1.98;;;;;;;21.12;48.08;100897.53;5056103;28;20068;-63
2022/06/29 07:05:25;;;;;;;7.47;1.90;;;;;;;21.18;46.97;100890.38;5057062;28;20056;-63
2022/06/29 07:07:52;;;;;;;10.63;1.80;;;;;;;21.33;47.01;100888.56;5073930;28;20070;-66
2022/06/29 07:10:20;;;;;;;10.13;1.83;;;;;;;21.42;45.83;100888.28;5053748;28;20830;-64
2022/06/29 07:12:47;;;;;;;8.05;1.85;;;;;;;21.95;46.58;100890.50;5079639;28;20052;-64
2022/06/29 07:15:22;;;;;;;8.57;1.45;;;;;;;22.15;44.96;100891.91;5071994;28;20057;-64
2022/06/29 07:17:49;;;;;;;9.18;1.50;;;;;;;21.91;44.38;100892.47;5077598;28;20517;-64
2022/06/29 07:20:16;;;;;;;9.52;1.73;;;;;;;22.16;44.26;100887.06;5056319;28;20070;-65
2022/06/29 07:22:44;;;;;;;5.57;1.73;;;;;;;22.34;44.05;100885.25;5037667;28;20055;-66
2022/06/29 07:25:12;;;;;;;13.35;1.27;;;;;;;22.34;43.85;100886.06;5080874;28;20055;-67
2022/06/29 07:27:39;;;;;;;7.32;1.70;;;;;;;22.20;44.54;100887.91;5085931;28;20500;-64
2022/06/29 07:30:07;;;;;;;11.73;1.95;;;;;;;22.80;43.28;100880.81;5075499;28;20048;-65
2022/06/29 07:32:34;;;;;;;5.72;1.52;;;;;;;23.00;42.62;100884.09;5074436;28;20044;-65
2022/06/29 07:35:02;;;;;;;11.13;2.10;;;;;;;23.37;41.57;100882.72;5055446;28;20048;-65
2022/06/29 07:37:30;;;;;;;11.52;2.15;;;;;;;23.76;40.89;100877.22;5060137;28;20053;-65
2022/06/29 07:39:57;;;;;;;18.25;2.17;;;;;;;23.53;41.59;100873.13;5039023;28;20071;-44
2022/06/29 07:42:39;;;;;;;17.25;2.85;;;;;;;23.95;40.44;100876.84;5077101;28;20044;-64
2022/06/29 07:45:07;;;;;;;10.95;1.85;;;;;;;23.99;39.48;100872.06;5058425;28;20047;-64
2022/06/29 07:47:35;;;;;;;10.32;1.92;;;;;;;24.16;40.21;100867.66;5079892;28;20049;-65
2022/06/29 07:50:04;;;;;;;10.00;1.65;;;;;;;24.61;38.70;100864.00;5056998;28;20068;-64
2022/06/29 07:52:33;;;;;;;8.63;1.67;;;;;;;24.36;38.40;100869.66;5069636;28;20053;-62
2022/06/29 07:55:01;;;;;;;9.93;2.30;;;;;;;24.21;38.79;100868.06;5060827;28;20055;-67
2022/06/29 07:57:28;;;;;;;9.25;1.95;;;;;;;23.88;39.43;100859.97;5080054;28;20052;-67
2022/06/29 07:59:56;;;;;;;11.27;1.75;;;;;;;23.82;39.71;100867.19;5066239;28;20040;-67
2022/06/29 08:02:23;;;;;;;13.50;1.92;;;;;;;24.04;38.84;100873.69;5080276;28;20041;-67
2022/06/29 08:04:50;;;;;;;11.57;1.90;;;;;;;24.71;38.01;100868.03;5056006;28;20057;-67
2022/06/29 08:07:31;;;;;;;12.13;1.80;;;;;;;24.45;38.12;100872.06;5069065;28;20048;-67
2022/06/29 08:09:59;;;;;;;9.55;1.98;;;;;;;24.53;38.51;100877.28;5071453;28;20064;-66
2022/06/29 08:12:26;;;;;;;9.00;2.00;;;;;;;24.80;38.41;100874.06;5049479;28;20054;-67
2022/06/29 08:14:54;;;;;;;9.20;1.73;;;;;;;24.51;38.83;100882.50;5061878;28;20056;-66
2022/06/29 08:17:21;;;;;;;5.93;1.70;;;;;;;24.08;39.19;100877.28;5078402;28;20040;-67
2022/06/29 08:19:48;;;;;;;15.55;1.77;;;;;;;24.13;39.58;100872.06;5071852;28;20044;-66
2022/06/29 08:22:16;;;;;;;8.70;1.80;;;;;;;24.79;38.40;100869.66;5054163;28;20060;-66
2022/06/29 08:24:43;;;;;;;15.98;2.22;;;;;;;24.86;38.12;100866.81;5054489;28;20523;-67
2022/06/29 08:27:10;;;;;;;7.20;1.60;;;;;;;24.07;39.66;100855.97;5078502;28;20052;-66
2022/06/29 08:29:58;;;;;;;9.05;1.80;;;;;;;24.51;39.34;100859.97;5062341;28;20044;-67
2022/06/29 08:32:25;;;;;;;12.55;2.00;;;;;;;25.03;38.28;100851.84;5075500;28;20056;-67
2022/06/29 08:34:52;;;;;;;5.40;1.42;;;;;;;24.72;38.39;100853.56;5077413;28;20051;-67
2022/06/29 08:37:23;;;;;;;9.77;1.80;;;;;;;25.33;37.02;100843.69;5070895;28;20052;-69
2022/06/29 08:39:50;;;;;;;7.07;1.45;;;;;;;25.08;36.97;100849.41;5083951;28;20048;-66
2022/06/29 08:42:22;;;;;;;8.25;1.55;;;;;;;25.04;37.54;100845.00;5083603;28;20036;-67
2022/06/29 08:44:50;;;;;;;11.20;1.88;;;;;;;25.26;36.51;100849.34;5083137;28;20055;-68
2022/06/29 08:47:18;;;;;;;8.98;2.28;;;;;;;25.09;36.41;100858.69;5067473;28;20048;-67
2022/06/29 08:49:45;;;;;;;11.27;2.20;;;;;;;24.84;36.56;100849.50;5044925;28;20067;-67
2022/06/29 08:52:12;;;;;;;9.07;2.70;;;;;;;24.84;37.00;100855.94;5075962;28;20048;-67
2022/06/29 08:54:44;;;;;;;8.73;2.08;;;;;;;24.67;36.93;100858.78;5077602;28;20056;-68
2022/06/29 08:57:14;;;;;;;6.25;1.90;;;;;;;24.90;36.97;100856.31;5080462;28;20044;-68
2022/06/29 08:59:45;;;;;;;4.03;1.50;;;;;;;24.88;37.03;100867.22;5067765;28;20052;-66
2022/06/29 09:02:28;;;;;;;4.85;1.48;;;;;;;24.86;37.07;100861.94;5080204;28;20056;-68
2022/06/29 09:04:56;;;;;;;8.35;1.50;;;;;;;24.67;37.23;100861.59;5091810;28;20052;-66
2022/06/29 09:07:24;;;;;;;6.47;1.40;;;;;;;24.45;37.59;100861.63;5057200;28;20044;-66
2022/06/29 09:10:09;;;;;;;7.63;1.55;;;;;;;24.61;37.33;100863.19;5079480;28;20061;-67
2022/06/29 09:12:41;;;;;;;8.02;1.60;;;;;;;24.88;36.97;100864.41;5069448;28;20056;-66
2022/06/29 09:15:09;;;;;;;4.55;1.20;;;;;;;24.83;36.25;100859.16;5073658;28;20443;-66
2022/06/29 09:17:40;;;;;;;6.20;1.40;;;;;;;24.97;36.54;100859.09;5074249;28;20055;-66
2022/06/29 09:20:12;;;;;;;9.90;1.30;;;;;;;24.85;36.90;100866.00;5068971;28;20044;-67
2022/06/29 09:23:01;;;;;;;4.75;1.38;;;;;;;25.06;36.56;100870.75;5071409;28;20614;-66
2022/06/29 09:25:31;;;;;;;7.88;1.40;;;;;;;24.99;36.49;100865.16;5048832;28;20052;-66
2022/06/29 09:27:59;;;;;;;10.05;1.38;;;;;;;25.12;36.36;100867.09;5063711;28;20059;-67
2022/06/29 09:30:35;;;;;;;10.23;1.70;;;;;;;24.69;36.87;100868.44;5075685;28;20074;-66
2022/06/29 09:33:06;;;;;;;6.80;1.65;;;;;;;24.76;37.03;100876.88;5072924;28;20056;-68
2022/06/29 09:35:37;;;;;;;4.20;1.40;;;;;;;24.68;36.91;100880.91;5074166;28;20376;-66
2022/06/29 09:38:19;;;;;;;9.35;1.70;;;;;;;24.47;36.76;100878.91;5075665;28;20376;-66
2022/06/29 09:41:10;;;;;;;10.00;1.75;;;;;;;24.27;37.12;100877.69;5067242;28;20261;-65
2022/06/29 09:43:43;;;;;;;;;;;;;;;24.56;36.69;100880.50;5066942;28;20057;-65
2022/06/29 09:46:16;;;;;;;5.72;1.58;;;;;;;24.48;36.69;100876.88;5077172;28;19920;-67
2022/06/29 09:48:44;;;;;;;11.75;1.77;;;;;;;24.34;37.18;100874.88;5075429;28;20051;-66
2022/06/29 09:51:30;;;;;;;6.10;1.35;;;;;;;24.57;37.21;100870.84;5074702;28;20052;-66
2022/06/29 09:54:05;;;;;;;6.32;1.67;;;;;;;24.65;36.79;100876.09;5087098;28;20055;-66
2022/06/29 09:56:33;;;;;;;5.40;1.55;;;;;;;24.33;37.24;100875.28;5086290;28;20064;-68
2022/06/29 09:59:03;;;;;;;8.88;1.70;;;;;;;24.01;37.18;100877.28;5090026;28;20531;-67
2022/06/29 10:04:16;;;;;;;11.85;1.50;;;;;;;24.14;37.43;100873.69;5080338;28;20072;-66
2022/06/29 10:06:45;;;;;;;4.40;1.17;;;;;;;23.94;38.00;100869.59;5071648;28;20071;-67
2022/06/29 10:09:14;;;;;;;4.20;1.63;;;;;;;24.08;37.74;100863.22;5092280;28;21684;-66
2022/06/29 10:14:42;;;;;;;6.65;1.73;;;;;;;24.07;37.97;100856.78;5080226;28;20601;-68
2022/06/29 10:17:34;;;;;;;7.53;1.42;;;;;;;24.30;37.73;100857.19;5060517;28;20057;-67
2022/06/29 10:20:02;;;;;;;4.03;1.40;;;;;;;24.33;37.27;100856.41;5079822;28;20817;-68
2022/06/29 10:22:29;;;;;;;6.22;1.48;;;;;;;23.94;36.76;100852.72;5055627;28;20048;-67
2022/06/29 10:25:09;;;;;;;4.85;1.42;;;;;;;24.06;36.47;100851.56;5055023;28;20511;-66
2022/06/29 10:27:36;;;;;;;4.47;1.50;;;;;;;24.23;36.00;100842.31;5075164;28;20059;-68
2022/06/29 10:30:19;;;;;;;4.40;1.50;;;;;;;24.12;36.39;100845.13;5077127;28;20055;-67
2022/06/29 10:32:47;;;;;;;5.32;1.50;;;;;;;24.02;35.93;100840.31;5064277;28;20056;-67
2022/06/29 10:35:14;;;;;;;5.93;1.67;;;;;;;24.33;35.49;100836.69;5063360;28;20055;-68
2022/06/29 10:37:48;;;;;;;7.53;1.90;;;;;;;24.48;36.14;100832.63;5050131;28;20049;-71
2022/06/29 10:40:17;;;;;;;6.18;1.88;;;;;;;24.60;35.04;100830.63;5073453;28;20056;-66
2022/06/29 10:45:39;;;;;;;4.25;1.45;;;;;;;24.90;33.98;100826.13;5087436;28;20045;-67
2022/06/29 10:48:07;;;;;;;10.77;3.78;;;;;;;24.71;34.19;100822.94;5068936;28;20053;-68
2022/06/29 10:50:36;;;;;;;22.20;11.77;;;;;;;24.45;33.45;100819.38;5074506;28;20052;-67
2022/06/29 10:53:04;;;;;;;14.18;7.07;;;;;;;24.79;33.96;100831.00;5054469;28;20053;-67
2022/06/29 10:55:34;;;;;;;9.15;3.60;;;;;;;24.77;34.02;100824.97;5073884;28;20056;-69
2022/06/29 10:58:02;;;;;;;5.65;2.42;;;;;;;25.07;33.25;100822.44;5075123;28;20052;-68
2022/06/29 11:00:31;;;;;;;5.55;1.75;;;;;;;25.06;32.69;100811.56;5052915;28;20052;-66
2022/06/29 11:03:26;;;;;;;6.13;1.90;;;;;;;24.96;33.73;100812.41;5060710;28;20045;-67
2022/06/29 11:17:02;;;;;;;8.85;3.25;;;;;;;25.01;33.85;100804.34;5052376;28;20052;-66
2022/06/29 11:19:33;;;;;;;6.40;2.75;;;;;;;25.19;34.07;100788.13;5079316;28;20407;-68
2022/06/29 11:22:18;;;;;;;6.10;2.13;;;;;;;25.38;33.38;100790.50;5065229;28;20052;-68
2022/06/29 11:24:57;;;;;;;8.07;2.40;;;;;;;25.34;33.49;100789.69;5095083;28;20048;-67
2022/06/29 11:27:31;;;;;;;6.38;1.90;;;;;;;25.29;33.07;100787.31;5046323;28;20052;-67
2022/06/29 11:29:59;;;;;;;6.35;1.60;;;;;;;25.50;32.45;100794.84;5066599;28;20703;-66
2022/06/29 11:32:41;;;;;;;4.85;1.48;;;;;;;25.29;33.67;100792.94;5069690;28;20048;-67
2022/06/29 11:35:12;;;;;;;5.18;1.85;;;;;;;24.80;33.60;100795.97;5069470;28;20051;-67
2022/06/29 11:37:57;;;;;;;9.75;1.77;;;;;;;24.94;33.54;100798.75;5074976;28;20124;-67
2022/06/29 11:40:36;;;;;;;4.63;2.10;;;;;;;24.92;33.17;100789.88;5085756;28;20067;-72
2022/06/29 11:43:09;;;;;;;5.50;1.58;;;;;;;24.60;32.55;100789.13;5067273;28;20048;-69
2022/06/29 11:45:37;;;;;;;3.85;1.40;;;;;;;24.41;33.57;100787.59;5074220;28;20053;-67
2022/06/29 11:48:13;;;;;;;4.90;1.38;;;;;;;24.20;34.37;100786.84;5082183;28;20059;-67
2022/06/29 11:50:48;;;;;;;4.07;1.40;;;;;;;24.59;34.85;100792.38;5063474;28;20049;-66
2022/06/29 11:53:39;;;;;;;4.78;1.58;;;;;;;25.17;34.21;100790.59;5064062;28;20568;-66
2022/06/29 11:56:09;;;;;;;5.80;1.70;;;;;;;25.31;33.78;100781.25;5058916;28;20060;-68
2022/06/29 11:58:38;;;;;;;7.57;1.40;;;;;;;25.70;32.98;100772.56;5070912;28;20062;-67
2022/06/29 12:01:18;;;;;;;6.72;1.40;;;;;;;25.54;32.95;100764.63;5071059;28;20060;-67